sensor_id;sensor_type;location;lat;lon;timestamp;P1;durP1;ratioP1;P2;durP2;ratioP2
4420;SDS011;11824;51.178;13.546;2023-02-03T00:00:28;8.67;;;3.00;;
4420;SDS011;11824;51.178;13.546;2023-02-03T00:02:56;8.23;;;4.10;;
4420;SDS011;11824;51.178;13.546;2023-02-03T00:05:23;11.70;;;3.60;;
4420;SDS011;11824;51.178;13.546;2023-02-03T00:07:51;6.60;;;3.87;;
4420;SDS011;11824;51.178;13.546;2023-02-03T00:10:19;8.67;;;3.50;;
4420;SDS011;11824;51.178;13.546;2023-02-03T00:12:47;8.90;;;3.33;;
4420;SDS011;11824;51.178;13.546;2023-02-03T00:15:15;5.87;;;3.57;;
4420;SDS011;11824;51.178;13.546;2023-02-03T00:17:43;10.83;;;4.20;;
4420;SDS011;11824;51.178;13.546;2023-02-03T00:20:10;7.97;;;3.70;;
4420;SDS011;11824;51.178;13.546;2023-02-03T00:22:38;10.90;;;3.70;;
4420;SDS011;11824;51.178;13.546;2023-02-03T00:25:05;9.30;;;3.80;;
4420;SDS011;11824;51.178;13.546;2023-02-03T00:27:33;14.27;;;3.30;;
4420;SDS011;11824;51.178;13.546;2023-02-03T00:30:00;9.73;;;3.60;;
4420;SDS011;11824;51.178;13.546;2023-02-03T00:32:28;12.77;;;3.93;;
4420;SDS011;11824;51.178;13.546;2023-02-03T00:34:56;9.83;;;3.43;;
4420;SDS011;11824;51.178;13.546;2023-02-03T00:37:23;12.23;;;3.30;;
4420;SDS011;11824;51.178;13.546;2023-02-03T00:39:50;5.40;;;3.17;;
4420;SDS011;11824;51.178;13.546;2023-02-03T00:42:18;14.63;;;3.90;;
4420;SDS011;11824;51.178;13.546;2023-02-03T00:44:45;6.17;;;3.17;;
4420;SDS011;11824;51.178;13.546;2023-02-03T00:47:12;10.33;;;3.60;;
4420;SDS011;11824;51.178;13.546;2023-02-03T00:49:40;13.10;;;4.83;;
4420;SDS011;11824;51.178;13.546;2023-02-03T00:52:08;5.40;;;2.70;;
4420;SDS011;11824;51.178;13.546;2023-02-03T00:54:35;15.90;;;3.17;;
4420;SDS011;11824;51.178;13.546;2023-02-03T00:57:02;8.27;;;3.17;;
4420;SDS011;11824;51.178;13.546;2023-02-03T00:59:30;8.77;;;3.50;;
4420;SDS011;11824;51.178;13.546;2023-02-03T01:01:57;11.30;;;3.10;;
4420;SDS011;11824;51.178;13.546;2023-02-03T01:04:24;5.30;;;3.03;;
4420;SDS011;11824;51.178;13.546;2023-02-03T01:06:52;7.40;;;2.63;;
4420;SDS011;11824;51.178;13.546;2023-02-03T01:09:22;7.87;;;3.40;;
4420;SDS011;11824;51.178;13.546;2023-02-03T01:11:49;6.90;;;4.50;;
4420;SDS011;11824;51.178;13.546;2023-02-03T01:14:16;6.07;;;2.47;;
4420;SDS011;11824;51.178;13.546;2023-02-03T01:16:44;6.33;;;3.00;;
4420;SDS011;11824;51.178;13.546;2023-02-03T01:19:11;8.23;;;2.70;;
4420;SDS011;11824;51.178;13.546;2023-02-03T01:21:39;6.07;;;2.47;;
4420;SDS011;11824;51.178;13.546;2023-02-03T01:24:07;7.53;;;2.83;;
4420;SDS011;11824;51.178;13.546;2023-02-03T01:26:35;6.33;;;2.57;;
4420;SDS011;11824;51.178;13.546;2023-02-03T01:29:02;3.90;;;2.20;;
4420;SDS011;11824;51.178;13.546;2023-02-03T01:31:31;5.10;;;2.23;;
4420;SDS011;11824;51.178;13.546;2023-02-03T01:34:00;6.90;;;2.37;;
4420;SDS011;11824;51.178;13.546;2023-02-03T01:36:28;10.73;;;2.23;;
4420;SDS011;11824;51.178;13.546;2023-02-03T01:38:56;4.63;;;2.07;;
4420;SDS011;11824;51.178;13.546;2023-02-03T01:41:26;3.33;;;2.20;;
4420;SDS011;11824;51.178;13.546;2023-02-03T01:43:55;5.13;;;2.20;;
4420;SDS011;11824;51.178;13.546;2023-02-03T01:46:24;8.10;;;3.03;;
4420;SDS011;11824;51.178;13.546;2023-02-03T01:48:55;9.93;;;4.30;;
4420;SDS011;11824;51.178;13.546;2023-02-03T01:51:29;6.20;;;2.23;;
4420;SDS011;11824;51.178;13.546;2023-02-03T01:53:57;3.63;;;2.40;;
4420;SDS011;11824;51.178;13.546;2023-02-03T01:56:26;7.63;;;2.53;;
4420;SDS011;11824;51.178;13.546;2023-02-03T01:58:57;4.47;;;2.10;;
4420;SDS011;11824;51.178;13.546;2023-02-03T02:01:25;3.50;;;2.50;;
4420;SDS011;11824;51.178;13.546;2023-02-03T02:03:55;5.63;;;2.70;;
4420;SDS011;11824;51.178;13.546;2023-02-03T02:06:24;10.83;;;3.00;;
4420;SDS011;11824;51.178;13.546;2023-02-03T02:08:52;7.30;;;2.57;;
4420;SDS011;11824;51.178;13.546;2023-02-03T02:11:20;9.93;;;2.63;;
4420;SDS011;11824;51.178;13.546;2023-02-03T02:13:49;3.37;;;2.20;;
4420;SDS011;11824;51.178;13.546;2023-02-03T02:16:20;4.70;;;2.20;;
4420;SDS011;11824;51.178;13.546;2023-02-03T02:19:03;3.97;;;2.37;;
4420;SDS011;11824;51.178;13.546;2023-02-03T02:22:02;8.03;;;2.20;;
4420;SDS011;11824;51.178;13.546;2023-02-03T02:24:40;3.80;;;2.07;;
4420;SDS011;11824;51.178;13.546;2023-02-03T02:27:34;3.40;;;1.83;;
4420;SDS011;11824;51.178;13.546;2023-02-03T02:30:28;3.97;;;2.23;;
4420;SDS011;11824;51.178;13.546;2023-02-03T02:33:16;3.97;;;2.20;;
4420;SDS011;11824;51.178;13.546;2023-02-03T02:35:54;4.90;;;1.90;;
4420;SDS011;11824;51.178;13.546;2023-02-03T02:38:33;6.43;;;3.13;;
4420;SDS011;11824;51.178;13.546;2023-02-03T02:41:08;4.30;;;2.43;;
4420;SDS011;11824;51.178;13.546;2023-02-03T02:43:40;4.57;;;2.10;;
4420;SDS011;11824;51.178;13.546;2023-02-03T02:46:10;4.60;;;2.20;;
4420;SDS011;11824;51.178;13.546;2023-02-03T02:48:42;7.87;;;2.30;;
4420;SDS011;11824;51.178;13.546;2023-02-03T02:51:15;8.00;;;2.53;;
4420;SDS011;11824;51.178;13.546;2023-02-03T02:53:45;5.67;;;2.07;;
4420;SDS011;11824;51.178;13.546;2023-02-03T02:56:15;2.00;;;1.80;;
4420;SDS011;11824;51.178;13.546;2023-02-03T02:58:44;3.20;;;1.90;;
4420;SDS011;11824;51.178;13.546;2023-02-03T03:01:14;12.30;;;2.73;;
4420;SDS011;11824;51.178;13.546;2023-02-03T03:03:43;2.20;;;1.83;;
4420;SDS011;11824;51.178;13.546;2023-02-03T03:06:12;4.90;;;2.00;;
4420;SDS011;11824;51.178;13.546;2023-02-03T03:08:45;4.10;;;2.40;;
4420;SDS011;11824;51.178;13.546;2023-02-03T03:11:16;3.50;;;1.87;;
4420;SDS011;11824;51.178;13.546;2023-02-03T03:13:45;3.03;;;2.30;;
4420;SDS011;11824;51.178;13.546;2023-02-03T03:16:15;3.40;;;2.50;;
4420;SDS011;11824;51.178;13.546;2023-02-03T03:18:48;5.20;;;2.50;;
4420;SDS011;11824;51.178;13.546;2023-02-03T03:21:18;3.27;;;2.63;;
4420;SDS011;11824;51.178;13.546;2023-02-03T03:23:50;4.10;;;2.93;;
4420;SDS011;11824;51.178;13.546;2023-02-03T03:26:23;6.10;;;4.57;;
4420;SDS011;11824;51.178;13.546;2023-02-03T03:28:56;4.90;;;3.00;;
4420;SDS011;11824;51.178;13.546;2023-02-03T03:31:30;4.93;;;4.37;;
4420;SDS011;11824;51.178;13.546;2023-02-03T03:33:58;3.73;;;3.37;;
4420;SDS011;11824;51.178;13.546;2023-02-03T03:36:27;4.57;;;3.40;;
4420;SDS011;11824;51.178;13.546;2023-02-03T03:38:59;6.47;;;5.43;;
4420;SDS011;11824;51.178;13.546;2023-02-03T03:41:34;4.93;;;4.10;;
4420;SDS011;11824;51.178;13.546;2023-02-03T03:44:09;5.27;;;4.20;;
4420;SDS011;11824;51.178;13.546;2023-02-03T03:46:40;6.60;;;4.50;;
4420;SDS011;11824;51.178;13.546;2023-02-03T03:49:12;7.07;;;3.87;;
4420;SDS011;11824;51.178;13.546;2023-02-03T03:51:41;5.50;;;4.30;;
4420;SDS011;11824;51.178;13.546;2023-02-03T03:54:14;7.30;;;5.10;;
4420;SDS011;11824;51.178;13.546;2023-02-03T03:56:45;7.23;;;4.93;;
4420;SDS011;11824;51.178;13.546;2023-02-03T03:59:16;7.43;;;4.50;;
4420;SDS011;11824;51.178;13.546;2023-02-03T04:01:46;5.40;;;4.60;;
4420;SDS011;11824;51.178;13.546;2023-02-03T04:04:16;6.97;;;4.10;;
4420;SDS011;11824;51.178;13.546;2023-02-03T04:06:45;9.03;;;5.77;;
4420;SDS011;11824;51.178;13.546;2023-02-03T04:09:12;5.30;;;4.03;;
4420;SDS011;11824;51.178;13.546;2023-02-03T04:11:39;9.43;;;5.30;;
4420;SDS011;11824;51.178;13.546;2023-02-03T04:14:25;7.90;;;5.20;;
4420;SDS011;11824;51.178;13.546;2023-02-03T04:16:54;8.10;;;4.60;;
4420;SDS011;11824;51.178;13.546;2023-02-03T04:19:22;7.53;;;5.30;;
4420;SDS011;11824;51.178;13.546;2023-02-03T04:21:50;16.40;;;4.03;;
4420;SDS011;11824;51.178;13.546;2023-02-03T04:24:17;8.93;;;5.53;;
4420;SDS011;11824;51.178;13.546;2023-02-03T04:26:45;6.67;;;2.67;;
4420;SDS011;11824;51.178;13.546;2023-02-03T04:29:12;6.67;;;4.33;;
4420;SDS011;11824;51.178;13.546;2023-02-03T04:31:40;4.90;;;4.10;;
4420;SDS011;11824;51.178;13.546;2023-02-03T04:34:07;9.30;;;5.10;;
4420;SDS011;11824;51.178;13.546;2023-02-03T04:36:35;9.73;;;5.23;;
4420;SDS011;11824;51.178;13.546;2023-02-03T04:39:02;6.57;;;5.03;;
4420;SDS011;11824;51.178;13.546;2023-02-03T04:41:30;7.67;;;4.70;;
4420;SDS011;11824;51.178;13.546;2023-02-03T04:43:57;7.87;;;5.20;;
4420;SDS011;11824;51.178;13.546;2023-02-03T04:46:24;5.47;;;4.43;;
4420;SDS011;11824;51.178;13.546;2023-02-03T04:48:52;6.23;;;4.87;;
4420;SDS011;11824;51.178;13.546;2023-02-03T04:51:19;6.40;;;5.33;;
4420;SDS011;11824;51.178;13.546;2023-02-03T04:53:47;5.70;;;4.40;;
4420;SDS011;11824;51.178;13.546;2023-02-03T04:56:14;10.47;;;6.33;;
4420;SDS011;11824;51.178;13.546;2023-02-03T04:58:41;11.50;;;5.97;;
4420;SDS011;11824;51.178;13.546;2023-02-03T05:01:09;7.40;;;4.57;;
4420;SDS011;11824;51.178;13.546;2023-02-03T05:03:36;6.37;;;5.00;;
4420;SDS011;11824;51.178;13.546;2023-02-03T05:06:04;11.23;;;6.10;;
4420;SDS011;11824;51.178;13.546;2023-02-03T05:08:31;6.77;;;5.43;;
4420;SDS011;11824;51.178;13.546;2023-02-03T05:10:59;10.00;;;5.80;;
4420;SDS011;11824;51.178;13.546;2023-02-03T05:13:27;6.03;;;4.20;;
4420;SDS011;11824;51.178;13.546;2023-02-03T05:15:55;7.40;;;5.43;;
4420;SDS011;11824;51.178;13.546;2023-02-03T05:18:22;8.23;;;5.37;;
4420;SDS011;11824;51.178;13.546;2023-02-03T05:20:49;8.70;;;5.70;;
4420;SDS011;11824;51.178;13.546;2023-02-03T05:23:16;6.73;;;4.23;;
4420;SDS011;11824;51.178;13.546;2023-02-03T05:25:44;6.63;;;4.30;;
4420;SDS011;11824;51.178;13.546;2023-02-03T05:28:12;12.17;;;6.53;;
4420;SDS011;11824;51.178;13.546;2023-02-03T05:30:39;10.67;;;7.03;;
4420;SDS011;11824;51.178;13.546;2023-02-03T05:33:07;21.70;;;10.70;;
4420;SDS011;11824;51.178;13.546;2023-02-03T05:35:34;9.03;;;6.10;;
4420;SDS011;11824;51.178;13.546;2023-02-03T05:38:01;9.43;;;7.27;;
4420;SDS011;11824;51.178;13.546;2023-02-03T05:40:29;10.30;;;7.10;;
4420;SDS011;11824;51.178;13.546;2023-02-03T05:43:15;9.20;;;6.90;;
4420;SDS011;11824;51.178;13.546;2023-02-03T05:45:42;6.67;;;4.30;;
4420;SDS011;11824;51.178;13.546;2023-02-03T05:48:10;9.47;;;6.13;;
4420;SDS011;11824;51.178;13.546;2023-02-03T05:50:37;10.10;;;6.60;;
4420;SDS011;11824;51.178;13.546;2023-02-03T05:53:05;12.87;;;7.77;;
4420;SDS011;11824;51.178;13.546;2023-02-03T05:55:33;20.00;;;10.80;;
4420;SDS011;11824;51.178;13.546;2023-02-03T05:58:01;30.40;;;12.60;;
4420;SDS011;11824;51.178;13.546;2023-02-03T06:00:29;16.93;;;9.60;;
4420;SDS011;11824;51.178;13.546;2023-02-03T06:02:58;15.87;;;8.40;;
4420;SDS011;11824;51.178;13.546;2023-02-03T06:05:27;15.87;;;7.77;;
4420;SDS011;11824;51.178;13.546;2023-02-03T06:07:54;16.23;;;9.57;;
4420;SDS011;11824;51.178;13.546;2023-02-03T06:10:22;15.07;;;9.60;;
4420;SDS011;11824;51.178;13.546;2023-02-03T06:12:49;11.20;;;6.80;;
4420;SDS011;11824;51.178;13.546;2023-02-03T06:15:16;11.60;;;7.40;;
4420;SDS011;11824;51.178;13.546;2023-02-03T06:17:45;11.37;;;7.63;;
4420;SDS011;11824;51.178;13.546;2023-02-03T06:20:14;10.50;;;7.63;;
4420;SDS011;11824;51.178;13.546;2023-02-03T06:22:43;12.40;;;6.83;;
4420;SDS011;11824;51.178;13.546;2023-02-03T06:25:10;12.10;;;8.60;;
4420;SDS011;11824;51.178;13.546;2023-02-03T06:27:38;10.43;;;7.73;;
4420;SDS011;11824;51.178;13.546;2023-02-03T06:30:07;13.07;;;8.70;;
4420;SDS011;11824;51.178;13.546;2023-02-03T06:32:35;11.80;;;7.53;;
4420;SDS011;11824;51.178;13.546;2023-02-03T06:35:04;10.83;;;6.90;;
4420;SDS011;11824;51.178;13.546;2023-02-03T06:37:31;11.73;;;8.30;;
4420;SDS011;11824;51.178;13.546;2023-02-03T06:40:00;11.20;;;7.83;;
4420;SDS011;11824;51.178;13.546;2023-02-03T06:42:28;7.57;;;5.93;;
4420;SDS011;11824;51.178;13.546;2023-02-03T06:44:56;14.83;;;7.70;;
4420;SDS011;11824;51.178;13.546;2023-02-03T06:47:23;12.07;;;7.00;;
4420;SDS011;11824;51.178;13.546;2023-02-03T06:49:50;8.00;;;4.83;;
4420;SDS011;11824;51.178;13.546;2023-02-03T06:52:18;8.43;;;6.40;;
4420;SDS011;11824;51.178;13.546;2023-02-03T06:54:46;13.43;;;7.50;;
4420;SDS011;11824;51.178;13.546;2023-02-03T06:57:13;11.53;;;8.03;;
4420;SDS011;11824;51.178;13.546;2023-02-03T06:59:40;8.20;;;6.10;;
4420;SDS011;11824;51.178;13.546;2023-02-03T07:02:08;15.10;;;8.60;;
4420;SDS011;11824;51.178;13.546;2023-02-03T07:04:36;12.93;;;8.50;;
4420;SDS011;11824;51.178;13.546;2023-02-03T07:07:03;11.63;;;7.70;;
4420;SDS011;11824;51.178;13.546;2023-02-03T07:09:31;13.37;;;8.63;;
4420;SDS011;11824;51.178;13.546;2023-02-03T07:11:59;14.97;;;9.10;;
4420;SDS011;11824;51.178;13.546;2023-02-03T07:14:26;11.17;;;5.63;;
4420;SDS011;11824;51.178;13.546;2023-02-03T07:16:55;13.90;;;9.27;;
4420;SDS011;11824;51.178;13.546;2023-02-03T07:19:22;12.83;;;8.00;;
4420;SDS011;11824;51.178;13.546;2023-02-03T07:21:49;9.27;;;7.43;;
4420;SDS011;11824;51.178;13.546;2023-02-03T07:24:17;11.70;;;8.47;;
4420;SDS011;11824;51.178;13.546;2023-02-03T07:26:45;12.63;;;6.83;;
4420;SDS011;11824;51.178;13.546;2023-02-03T07:29:12;8.03;;;6.30;;
4420;SDS011;11824;51.178;13.546;2023-02-03T07:31:40;8.07;;;5.97;;
4420;SDS011;11824;51.178;13.546;2023-02-03T07:34:07;10.67;;;7.47;;
4420;SDS011;11824;51.178;13.546;2023-02-03T07:36:35;11.70;;;9.07;;
4420;SDS011;11824;51.178;13.546;2023-02-03T07:39:02;12.77;;;8.63;;
4420;SDS011;11824;51.178;13.546;2023-02-03T07:41:30;13.47;;;7.40;;
4420;SDS011;11824;51.178;13.546;2023-02-03T07:43:58;26.87;;;19.57;;
4420;SDS011;11824;51.178;13.546;2023-02-03T07:46:25;19.97;;;7.17;;
4420;SDS011;11824;51.178;13.546;2023-02-03T07:48:52;10.43;;;8.60;;
4420;SDS011;11824;51.178;13.546;2023-02-03T07:51:20;15.63;;;7.50;;
4420;SDS011;11824;51.178;13.546;2023-02-03T07:53:47;4.23;;;3.83;;
4420;SDS011;11824;51.178;13.546;2023-02-03T07:56:14;6.20;;;5.33;;
4420;SDS011;11824;51.178;13.546;2023-02-03T07:58:42;7.07;;;5.30;;
4420;SDS011;11824;51.178;13.546;2023-02-03T08:01:10;12.73;;;5.20;;
4420;SDS011;11824;51.178;13.546;2023-02-03T08:03:40;8.33;;;5.83;;
4420;SDS011;11824;51.178;13.546;2023-02-03T08:06:07;12.30;;;5.67;;
4420;SDS011;11824;51.178;13.546;2023-02-03T08:08:35;13.47;;;5.97;;
4420;SDS011;11824;51.178;13.546;2023-02-03T08:11:03;9.77;;;6.10;;
4420;SDS011;11824;51.178;13.546;2023-02-03T08:13:30;3.27;;;2.50;;
4420;SDS011;11824;51.178;13.546;2023-02-03T08:15:57;3.47;;;3.13;;
4420;SDS011;11824;51.178;13.546;2023-02-03T08:18:25;4.20;;;3.40;;
4420;SDS011;11824;51.178;13.546;2023-02-03T08:20:53;4.00;;;3.60;;
4420;SDS011;11824;51.178;13.546;2023-02-03T08:23:20;5.50;;;3.60;;
4420;SDS011;11824;51.178;13.546;2023-02-03T08:25:49;5.70;;;4.30;;
4420;SDS011;11824;51.178;13.546;2023-02-03T08:28:17;4.10;;;3.13;;
4420;SDS011;11824;51.178;13.546;2023-02-03T08:30:44;4.70;;;3.67;;
4420;SDS011;11824;51.178;13.546;2023-02-03T08:33:12;5.10;;;3.57;;
4420;SDS011;11824;51.178;13.546;2023-02-03T08:35:40;5.57;;;4.00;;
4420;SDS011;11824;51.178;13.546;2023-02-03T08:38:11;4.90;;;3.17;;
4420;SDS011;11824;51.178;13.546;2023-02-03T08:40:38;8.90;;;5.13;;
4420;SDS011;11824;51.178;13.546;2023-02-03T08:43:06;13.13;;;6.60;;
4420;SDS011;11824;51.178;13.546;2023-02-03T08:45:33;6.10;;;3.93;;
4420;SDS011;11824;51.178;13.546;2023-02-03T08:48:01;11.53;;;6.10;;
4420;SDS011;11824;51.178;13.546;2023-02-03T08:50:28;6.60;;;5.53;;
4420;SDS011;11824;51.178;13.546;2023-02-03T08:52:57;9.43;;;7.43;;
4420;SDS011;11824;51.178;13.546;2023-02-03T08:55:24;11.83;;;7.20;;
4420;SDS011;11824;51.178;13.546;2023-02-03T08:57:51;5.73;;;3.40;;
4420;SDS011;11824;51.178;13.546;2023-02-03T09:00:19;8.43;;;3.30;;
4420;SDS011;11824;51.178;13.546;2023-02-03T09:02:47;4.10;;;3.37;;
4420;SDS011;11824;51.178;13.546;2023-02-03T09:05:14;4.57;;;3.10;;
4420;SDS011;11824;51.178;13.546;2023-02-03T09:07:43;8.40;;;3.60;;
4420;SDS011;11824;51.178;13.546;2023-02-03T09:10:11;7.50;;;3.97;;
4420;SDS011;11824;51.178;13.546;2023-02-03T09:12:38;8.30;;;4.70;;
4420;SDS011;11824;51.178;13.546;2023-02-03T09:15:06;7.43;;;4.30;;
4420;SDS011;11824;51.178;13.546;2023-02-03T09:17:34;9.27;;;4.43;;
4420;SDS011;11824;51.178;13.546;2023-02-03T09:20:01;9.10;;;4.67;;
4420;SDS011;11824;51.178;13.546;2023-02-03T09:22:29;13.60;;;4.73;;
4420;SDS011;11824;51.178;13.546;2023-02-03T09:24:56;9.00;;;5.80;;
4420;SDS011;11824;51.178;13.546;2023-02-03T09:27:24;7.07;;;4.10;;
4420;SDS011;11824;51.178;13.546;2023-02-03T09:29:51;6.40;;;5.20;;
4420;SDS011;11824;51.178;13.546;2023-02-03T09:32:19;10.40;;;6.57;;
4420;SDS011;11824;51.178;13.546;2023-02-03T09:34:46;8.30;;;5.80;;
4420;SDS011;11824;51.178;13.546;2023-02-03T09:37:14;11.70;;;6.70;;
4420;SDS011;11824;51.178;13.546;2023-02-03T09:39:41;6.17;;;4.67;;
4420;SDS011;11824;51.178;13.546;2023-02-03T09:45:03;15.30;;;5.20;;
4420;SDS011;11824;51.178;13.546;2023-02-03T09:47:40;13.93;;;5.73;;
4420;SDS011;11824;51.178;13.546;2023-02-03T09:50:10;9.90;;;5.73;;
4420;SDS011;11824;51.178;13.546;2023-02-03T09:52:43;5.43;;;4.10;;
4420;SDS011;11824;51.178;13.546;2023-02-03T09:55:15;16.77;;;7.30;;
4420;SDS011;11824;51.178;13.546;2023-02-03T09:57:54;8.87;;;5.20;;
4420;SDS011;11824;51.178;13.546;2023-02-03T10:00:28;9.60;;;6.60;;
4420;SDS011;11824;51.178;13.546;2023-02-03T10:03:02;11.93;;;9.40;;
4420;SDS011;11824;51.178;13.546;2023-02-03T10:05:48;22.60;;;13.77;;
4420;SDS011;11824;51.178;13.546;2023-02-03T10:08:28;8.47;;;5.97;;
4420;SDS011;11824;51.178;13.546;2023-02-03T10:11:17;7.87;;;6.00;;
4420;SDS011;11824;51.178;13.546;2023-02-03T10:13:55;12.77;;;6.17;;
4420;SDS011;11824;51.178;13.546;2023-02-03T10:16:34;3.40;;;2.77;;
4420;SDS011;11824;51.178;13.546;2023-02-03T10:19:11;7.10;;;3.73;;
4420;SDS011;11824;51.178;13.546;2023-02-03T10:21:46;10.27;;;4.07;;
4420;SDS011;11824;51.178;13.546;2023-02-03T10:24:18;5.10;;;4.10;;
4420;SDS011;11824;51.178;13.546;2023-02-03T10:26:49;14.00;;;7.73;;
4420;SDS011;11824;51.178;13.546;2023-02-03T10:29:18;10.57;;;6.47;;
4420;SDS011;11824;51.178;13.546;2023-02-03T10:31:57;6.60;;;5.33;;
4420;SDS011;11824;51.178;13.546;2023-02-03T10:34:25;4.40;;;3.57;;
4420;SDS011;11824;51.178;13.546;2023-02-03T10:36:53;7.00;;;3.30;;
4420;SDS011;11824;51.178;13.546;2023-02-03T10:39:31;3.40;;;3.10;;
4420;SDS011;11824;51.178;13.546;2023-02-03T10:42:04;3.67;;;2.33;;
4420;SDS011;11824;51.178;13.546;2023-02-03T10:44:35;5.03;;;2.23;;
4420;SDS011;11824;51.178;13.546;2023-02-03T10:47:16;3.90;;;3.50;;
4420;SDS011;11824;51.178;13.546;2023-02-03T10:49:49;3.00;;;2.50;;
4420;SDS011;11824;51.178;13.546;2023-02-03T10:52:24;13.03;;;3.30;;
4420;SDS011;11824;51.178;13.546;2023-02-03T10:54:54;5.53;;;2.43;;
4420;SDS011;11824;51.178;13.546;2023-02-03T10:57:23;3.30;;;3.00;;
4420;SDS011;11824;51.178;13.546;2023-02-03T11:00:02;2.50;;;2.30;;
4420;SDS011;11824;51.178;13.546;2023-02-03T11:02:31;2.53;;;2.10;;
4420;SDS011;11824;51.178;13.546;2023-02-03T11:05:09;2.40;;;1.93;;
4420;SDS011;11824;51.178;13.546;2023-02-03T11:07:44;3.33;;;2.13;;
4420;SDS011;11824;51.178;13.546;2023-02-03T11:10:25;1.80;;;1.70;;
4420;SDS011;11824;51.178;13.546;2023-02-03T11:13:16;1.93;;;1.70;;
4420;SDS011;11824;51.178;13.546;2023-02-03T11:15:55;3.07;;;1.70;;
4420;SDS011;11824;51.178;13.546;2023-02-03T11:18:25;3.30;;;2.70;;
4420;SDS011;11824;51.178;13.546;2023-02-03T11:21:12;2.07;;;1.97;;
4420;SDS011;11824;51.178;13.546;2023-02-03T11:23:43;3.63;;;1.87;;
4420;SDS011;11824;51.178;13.546;2023-02-03T11:26:20;3.00;;;1.40;;
4420;SDS011;11824;51.178;13.546;2023-02-03T11:28:50;2.00;;;1.80;;
4420;SDS011;11824;51.178;13.546;2023-02-03T11:31:23;2.60;;;2.40;;
4420;SDS011;11824;51.178;13.546;2023-02-03T11:33:56;4.40;;;1.80;;
4420;SDS011;11824;51.178;13.546;2023-02-03T11:36:27;3.33;;;2.60;;
4420;SDS011;11824;51.178;13.546;2023-02-03T11:39:16;3.67;;;2.57;;
4420;SDS011;11824;51.178;13.546;2023-02-03T11:41:50;5.33;;;3.87;;
4420;SDS011;11824;51.178;13.546;2023-02-03T11:44:19;8.20;;;2.57;;
4420;SDS011;11824;51.178;13.546;2023-02-03T11:46:49;2.27;;;1.77;;
4420;SDS011;11824;51.178;13.546;2023-02-03T11:49:42;2.93;;;1.60;;
4420;SDS011;11824;51.178;13.546;2023-02-03T11:52:34;6.73;;;1.80;;
4420;SDS011;11824;51.178;13.546;2023-02-03T11:55:27;4.73;;;3.50;;
4420;SDS011;11824;51.178;13.546;2023-02-03T11:58:06;2.40;;;2.20;;
4420;SDS011;11824;51.178;13.546;2023-02-03T12:00:50;3.73;;;2.60;;
4420;SDS011;11824;51.178;13.546;2023-02-03T12:06:35;3.20;;;1.60;;
4420;SDS011;11824;51.178;13.546;2023-02-03T12:09:17;9.53;;;3.57;;
4420;SDS011;11824;51.178;13.546;2023-02-03T12:14:48;8.80;;;5.20;;
4420;SDS011;11824;51.178;13.546;2023-02-03T12:17:28;3.77;;;2.77;;
4420;SDS011;11824;51.178;13.546;2023-02-03T12:20:34;2.03;;;1.93;;
4420;SDS011;11824;51.178;13.546;2023-02-03T12:23:12;5.10;;;2.57;;
4420;SDS011;11824;51.178;13.546;2023-02-03T12:25:59;3.23;;;2.47;;
4420;SDS011;11824;51.178;13.546;2023-02-03T12:28:41;1.80;;;1.60;;
4420;SDS011;11824;51.178;13.546;2023-02-03T12:31:15;2.77;;;1.77;;
4420;SDS011;11824;51.178;13.546;2023-02-03T12:33:53;1.30;;;1.20;;
4420;SDS011;11824;51.178;13.546;2023-02-03T12:36:27;1.83;;;1.70;;
4420;SDS011;11824;51.178;13.546;2023-02-03T12:39:01;1.63;;;1.53;;
4420;SDS011;11824;51.178;13.546;2023-02-03T12:41:38;1.50;;;1.40;;
4420;SDS011;11824;51.178;13.546;2023-02-03T12:44:13;1.60;;;1.50;;
4420;SDS011;11824;51.178;13.546;2023-02-03T12:46:45;1.50;;;1.40;;
4420;SDS011;11824;51.178;13.546;2023-02-03T12:49:23;1.57;;;1.47;;
4420;SDS011;11824;51.178;13.546;2023-02-03T12:51:57;1.77;;;1.27;;
4420;SDS011;11824;51.178;13.546;2023-02-03T12:54:31;4.13;;;1.60;;
4420;SDS011;11824;51.178;13.546;2023-02-03T12:57:07;3.43;;;1.57;;
4420;SDS011;11824;51.178;13.546;2023-02-03T12:59:41;5.60;;;3.50;;
4420;SDS011;11824;51.178;13.546;2023-02-03T13:02:21;3.70;;;2.17;;
4420;SDS011;11824;51.178;13.546;2023-02-03T13:04:53;3.77;;;2.63;;
4420;SDS011;11824;51.178;13.546;2023-02-03T13:07:28;7.73;;;4.67;;
4420;SDS011;11824;51.178;13.546;2023-02-03T13:10:04;7.27;;;1.43;;
4420;SDS011;11824;51.178;13.546;2023-02-03T13:12:41;12.30;;;3.50;;
4420;SDS011;11824;51.178;13.546;2023-02-03T13:15:17;3.40;;;1.17;;
4420;SDS011;11824;51.178;13.546;2023-02-03T13:17:51;5.40;;;1.60;;
4420;SDS011;11824;51.178;13.546;2023-02-03T13:20:24;2.70;;;0.87;;
4420;SDS011;11824;51.178;13.546;2023-02-03T13:22:56;5.03;;;1.50;;
4420;SDS011;11824;51.178;13.546;2023-02-03T13:25:24;5.90;;;2.27;;
4420;SDS011;11824;51.178;13.546;2023-02-03T13:28:03;8.27;;;1.93;;
4420;SDS011;11824;51.178;13.546;2023-02-03T13:30:45;7.40;;;2.00;;
4420;SDS011;11824;51.178;13.546;2023-02-03T13:33:31;9.53;;;3.30;;
4420;SDS011;11824;51.178;13.546;2023-02-03T13:36:32;8.03;;;2.30;;
4420;SDS011;11824;51.178;13.546;2023-02-03T13:39:21;9.20;;;3.00;;
4420;SDS011;11824;51.178;13.546;2023-02-03T13:42:18;11.03;;;3.00;;
4420;SDS011;11824;51.178;13.546;2023-02-03T13:44:50;14.50;;;3.07;;
4420;SDS011;11824;51.178;13.546;2023-02-03T13:47:23;23.93;;;4.23;;
4420;SDS011;11824;51.178;13.546;2023-02-03T13:49:54;5.90;;;2.23;;
4420;SDS011;11824;51.178;13.546;2023-02-03T13:52:30;4.17;;;1.80;;
4420;SDS011;11824;51.178;13.546;2023-02-03T13:55:01;17.03;;;2.37;;
4420;SDS011;11824;51.178;13.546;2023-02-03T13:57:33;19.87;;;3.90;;
4420;SDS011;11824;51.178;13.546;2023-02-03T14:00:03;8.27;;;3.70;;
4420;SDS011;11824;51.178;13.546;2023-02-03T14:02:52;12.80;;;4.17;;
4420;SDS011;11824;51.178;13.546;2023-02-03T14:05:39;5.03;;;2.00;;
4420;SDS011;11824;51.178;13.546;2023-02-03T14:20:33;12.53;;;1.93;;
4420;SDS011;11824;51.178;13.546;2023-02-03T14:26:28;13.13;;;2.50;;
4420;SDS011;11824;51.178;13.546;2023-02-03T14:29:03;7.93;;;1.80;;
4420;SDS011;11824;51.178;13.546;2023-02-03T14:34:17;9.37;;;1.83;;
4420;SDS011;11824;51.178;13.546;2023-02-03T14:36:52;10.90;;;1.80;;
4420;SDS011;11824;51.178;13.546;2023-02-03T14:39:28;30.93;;;2.50;;
4420;SDS011;11824;51.178;13.546;2023-02-03T14:45:27;12.93;;;2.43;;
4420;SDS011;11824;51.178;13.546;2023-02-03T14:48:10;24.13;;;3.10;;
4420;SDS011;11824;51.178;13.546;2023-02-03T14:50:53;15.37;;;2.23;;
4420;SDS011;11824;51.178;13.546;2023-02-03T14:53:36;11.40;;;3.50;;
4420;SDS011;11824;51.178;13.546;2023-02-03T14:56:16;5.07;;;2.00;;
4420;SDS011;11824;51.178;13.546;2023-02-03T14:58:52;22.37;;;3.03;;
4420;SDS011;11824;51.178;13.546;2023-02-03T15:02:05;9.87;;;2.77;;
4420;SDS011;11824;51.178;13.546;2023-02-03T15:04:33;9.70;;;2.80;;
4420;SDS011;11824;51.178;13.546;2023-02-03T15:07:01;16.20;;;3.30;;
4420;SDS011;11824;51.178;13.546;2023-02-03T15:09:29;22.47;;;2.70;;
4420;SDS011;11824;51.178;13.546;2023-02-03T15:12:02;10.83;;;2.13;;
4420;SDS011;11824;51.178;13.546;2023-02-03T15:14:41;6.60;;;2.30;;
4420;SDS011;11824;51.178;13.546;2023-02-03T15:17:10;10.50;;;2.80;;
4420;SDS011;11824;51.178;13.546;2023-02-03T15:19:46;13.33;;;2.77;;
4420;SDS011;11824;51.178;13.546;2023-02-03T15:22:17;7.73;;;2.50;;
4420;SDS011;11824;51.178;13.546;2023-02-03T15:24:46;6.70;;;2.67;;
4420;SDS011;11824;51.178;13.546;2023-02-03T15:27:21;10.80;;;2.97;;
4420;SDS011;11824;51.178;13.546;2023-02-03T15:29:50;15.20;;;3.00;;
4420;SDS011;11824;51.178;13.546;2023-02-03T15:32:18;8.23;;;1.87;;
4420;SDS011;11824;51.178;13.546;2023-02-03T15:34:53;23.27;;;3.77;;
4420;SDS011;11824;51.178;13.546;2023-02-03T15:37:22;16.67;;;3.30;;
4420;SDS011;11824;51.178;13.546;2023-02-03T15:39:58;13.80;;;3.40;;